Time;durP1;ratioP1;P1;durP2;ratioP2;P2;SDS_P1;SDS_P2;PMS_P1;PMS_P2;Temp;Humidity;BMP_temperature;BMP_pressure;BME280_temperature;BME280_humidity;BME280_pressure;Samples;Min_cycle;Max_cycle;Signal;HPM_P1;HPM_P2
2023/05/21 00:01:26;;;;;;;4.50;2.40;;;18.00;54.00;;;;;;5073510;28;20217;-73
2023/05/21 00:03:54;;;;;;;3.17;2.30;;;18.00;53.90;;;;;;5073698;28;20286;-71
2023/05/21 00:06:22;;;;;;;4.32;2.40;;;18.00;54.00;;;;;;5073259;28;20246;-72
2023/05/21 00:08:48;;;;;;;5.45;2.67;;;18.00;54.00;;;;;;5080387;28;20193;-72
2023/05/21 00:11:17;;;;;;;4.03;2.35;;;18.00;54.00;;;;;;5114365;28;20732;-71
2023/05/21 00:13:44;;;;;;;4.75;2.60;;;18.00;53.90;;;;;;5114296;28;20201;-71
2023/05/21 00:16:11;;;;;;;3.85;2.63;;;18.00;54.00;;;;;;5114320;28;20296;-72
2023/05/21 00:18:39;;;;;;;3.72;2.47;;;18.00;54.00;;;;;;5114015;28;20249;-71
2023/05/21 00:21:06;;;;;;;4.20;3.08;;;18.00;53.90;;;;;;5114392;28;20310;-72
2023/05/21 00:23:35;;;;;;;5.10;2.60;;;18.00;53.90;;;;;;5114179;28;20227;-71
2023/05/21 00:26:02;;;;;;;5.20;2.38;;;18.00;53.90;;;;;;5113783;28;20213;-71
2023/05/21 00:28:31;;;;;;;4.70;2.72;;;18.00;54.00;;;;;;5113896;28;20698;-71
2023/05/21 00:30:58;;;;;;;4.18;2.33;;;18.00;54.00;;;;;;5095929;28;20240;-71
2023/05/21 00:33:27;;;;;;;5.50;3.05;;;18.00;54.60;;;;;;5113967;28;20281;-71
2023/05/21 00:35:55;;;;;;;4.18;2.45;;;18.00;53.90;;;;;;5096491;28;20270;-72
2023/05/21 00:38:23;;;;;;;4.65;2.40;;;18.00;53.90;;;;;;5113949;28;20189;-71
2023/05/21 00:40:50;;;;;;;4.45;2.88;;;17.90;53.90;;;;;;5113919;28;20299;-71
2023/05/21 00:43:17;;;;;;;4.28;2.50;;;17.90;53.80;;;;;;5113582;28;20189;-72
2023/05/21 00:45:47;;;;;;;3.67;2.15;;;17.90;53.80;;;;;;5095431;28;20224;-71
2023/05/21 00:48:14;;;;;;;4.28;2.30;;;17.90;53.80;;;;;;5113363;28;20185;-71
2023/05/21 00:50:42;;;;;;;5.00;2.40;;;17.90;53.80;;;;;;5113332;28;20710;-72
2023/05/21 00:53:09;;;;;;;6.22;2.65;;;17.90;53.80;;;;;;5113083;28;20280;-71
2023/05/21 00:55:37;;;;;;;5.03;2.53;;;17.90;53.80;;;;;;5113375;28;20748;-71
2023/05/21 00:58:04;;;;;;;3.47;2.40;;;17.90;53.80;;;;;;5113554;28;20276;-73
2023/05/21 01:00:33;;;;;;;5.18;2.50;;;17.90;53.80;;;;;;5113140;28;20648;-71
2023/05/21 01:03:01;;;;;;;3.08;2.42;;;17.90;53.80;;;;;;5113369;28;20314;-72
2023/05/21 01:05:29;;;;;;;4.18;2.30;;;17.90;53.80;;;;;;5113130;28;20213;-71
2023/05/21 01:07:57;;;;;;;4.10;2.22;;;17.90;53.80;;;;;;5113590;28;20185;-71
2023/05/21 01:10:26;;;;;;;5.40;2.15;;;17.90;53.80;;;;;;5113084;28;20726;-72
2023/05/21 01:12:53;;;;;;;4.88;2.30;;;17.90;53.70;;;;;;5113168;28;20189;-71
2023/05/21 01:15:20;;;;;;;3.08;2.28;;;17.90;53.70;;;;;;5112952;28;20588;-71
2023/05/21 01:17:48;;;;;;;4.85;2.53;;;17.90;53.70;;;;;;5078416;28;20205;-72
2023/05/21 01:20:19;;;;;;;4.05;2.75;;;17.90;53.70;;;;;;5113231;28;20573;-71
2023/05/21 01:22:55;;;;;;;4.32;2.40;;;17.90;53.70;;;;;;5112978;28;20221;-71
2023/05/21 01:25:23;;;;;;;3.95;2.22;;;17.80;53.50;;;;;;5113069;28;20220;-72
2023/05/21 01:27:50;;;;;;;5.13;2.13;;;17.90;53.60;;;;;;5112721;28;20189;-71
2023/05/21 01:30:19;;;;;;;3.10;2.00;;;17.90;53.60;;;;;;5113041;28;20270;-71
2023/05/21 01:32:52;;;;;;;3.22;2.20;;;17.90;53.60;;;;;;5113217;28;20185;-71
2023/05/21 01:35:22;;;;;;;3.78;2.28;;;17.90;53.60;;;;;;5113230;28;20274;-71
2023/05/21 01:37:57;;;;;;;3.15;2.30;;;17.90;53.50;;;;;;5112634;28;20189;-71
2023/05/21 01:40:29;;;;;;;3.60;2.20;;;17.90;53.50;;;;;;5112970;28;20300;-73
2023/05/21 01:42:58;;;;;;;5.85;2.50;;;17.80;54.10;;;;;;5112753;28;20212;-71
2023/05/21 01:45:27;;;;;;;3.65;2.35;;;17.90;53.50;;;;;;5112889;28;20213;-71
2023/05/21 01:47:55;;;;;;;3.45;2.50;;;17.90;54.10;;;;;;5112486;28;20192;-70
2023/05/21 01:50:24;;;;;;;3.28;2.35;;;17.80;53.40;;;;;;5112391;28;20711;-70
2023/05/21 01:52:52;;;;;;;2.60;2.25;;;17.90;53.50;;;;;;5112728;28;20227;-71
2023/05/21 01:55:23;;;;;;;5.53;2.38;;;17.80;53.40;;;;;;5112774;28;20223;-71
2023/05/21 01:57:51;;;;;;;5.18;3.00;;;17.80;53.40;;;;;;5112341;28;20654;-71
2023/05/21 02:00:18;;;;;;;3.78;2.42;;;17.80;53.40;;;;;;5112753;28;20258;-70
2023/05/21 02:02:46;;;;;;;2.80;2.10;;;17.80;53.40;;;;;;5112449;28;20217;-70
2023/05/21 02:05:13;;;;;;;3.35;2.08;;;17.80;53.40;;;;;;5094825;28;20213;-70
2023/05/21 02:07:40;;;;;;;4.25;2.22;;;17.80;53.40;;;;;;5116851;28;20189;-70
2023/05/21 02:10:08;;;;;;;4.88;2.53;;;17.80;53.30;;;;;;5116551;28;20217;-70
2023/05/21 02:12:36;;;;;;;3.72;2.40;;;17.80;53.30;;;;;;5116680;28;20363;-71
2023/05/21 02:15:04;;;;;;;3.70;2.10;;;17.80;53.30;;;;;;5116747;28;20213;-70
2023/05/21 02:17:32;;;;;;;3.90;2.13;;;17.80;53.30;;;;;;5116695;28;20190;-70
2023/05/21 02:20:09;;;;;;;3.53;1.92;;;17.80;53.30;;;;;;5098143;28;20217;-71
2023/05/21 02:22:37;;;;;;;4.18;2.47;;;17.80;53.30;;;;;;5116500;28;20216;-72
2023/05/21 02:25:06;;;;;;;4.18;2.40;;;17.80;53.30;;;;;;5098425;28;20708;-72
2023/05/21 02:27:33;;;;;;;4.05;2.20;;;17.80;53.30;;;;;;5112520;28;20181;-72
2023/05/21 02:30:02;;;;;;;3.33;2.30;;;17.80;53.20;;;;;;5116102;28;20653;-72
2023/05/21 02:32:30;;;;;;;4.78;2.00;;;17.80;53.30;;;;;;5116634;28;20271;-72
2023/05/21 02:34:57;;;;;;;4.05;2.08;;;17.80;53.20;;;;;;5116450;28;20235;-71
2023/05/21 02:37:26;;;;;;;3.75;2.13;;;17.80;53.30;;;;;;5116257;28;20194;-73
2023/05/21 02:39:53;;;;;;;5.78;2.38;;;17.80;53.20;;;;;;5116244;28;20217;-73
2023/05/21 02:42:21;;;;;;;3.53;2.00;;;17.80;53.20;;;;;;5116045;28;20311;-71
2023/05/21 02:44:48;;;;;;;3.90;2.13;;;17.80;53.20;;;;;;5116219;28;20217;-71
2023/05/21 02:47:17;;;;;;;4.72;2.40;;;17.80;53.20;;;;;;5115783;28;20741;-72
2023/05/21 02:49:44;;;;;;;4.53;1.90;;;17.80;53.20;;;;;;5115766;28;20235;-71
2023/05/21 02:52:11;;;;;;;2.88;2.20;;;17.80;53.10;;;;;;5115735;28;20288;-72
2023/05/21 02:54:38;;;;;;;3.38;2.10;;;17.80;53.20;;;;;;5116001;28;20268;-72
2023/05/21 02:57:05;;;;;;;5.75;2.72;;;17.70;53.00;;;;;;5115656;28;20181;-72
2023/05/21 02:59:32;;;;;;;5.22;2.20;;;17.80;53.10;;;;;;5115735;28;20190;-70
2023/05/21 03:01:59;;;;;;;3.67;2.13;;;17.80;53.10;;;;;;5115355;28;20223;-72
2023/05/21 03:04:28;;;;;;;5.78;2.55;;;17.80;53.10;;;;;;5115700;28;20190;-73
2023/05/21 03:06:56;;;;;;;4.47;2.33;;;17.70;53.60;;;;;;5115677;28;20196;-72
2023/05/21 03:09:23;;;;;;;4.90;2.30;;;17.80;53.10;;;;;;5080844;28;20280;-71
2023/05/21 03:11:50;;;;;;;5.03;2.70;;;17.70;53.00;;;;;;5115554;28;20203;-71
2023/05/21 03:14:17;;;;;;;4.15;2.17;;;17.70;53.60;;;;;;5115589;28;20185;-72
2023/05/21 03:16:44;;;;;;;3.53;2.08;;;17.80;53.00;;;;;;5115038;28;20220;-72
2023/05/21 03:19:12;;;;;;;4.15;2.20;;;17.70;52.90;;;;;;5115477;28;20264;-71
2023/05/21 03:21:40;;;;;;;3.58;1.98;;;17.70;52.90;;;;;;5115495;28;20300;-71
2023/05/21 03:24:08;;;;;;;4.53;2.25;;;17.70;52.90;;;;;;5114983;28;20192;-72
2023/05/21 03:26:35;;;;;;;3.97;2.45;;;17.80;53.00;;;;;;5115028;28;20255;-72
2023/05/21 03:29:02;;;;;;;3.88;1.90;;;17.70;52.90;;;;;;5115455;28;20245;-71
2023/05/21 03:31:29;;;;;;;3.42;2.10;;;17.70;52.90;;;;;;5115141;28;20213;-71
2023/05/21 03:33:56;;;;;;;5.13;2.30;;;17.70;52.90;;;;;;5115270;28;20192;-71
2023/05/21 03:36:23;;;;;;;4.63;2.33;;;17.70;52.90;;;;;;5115284;28;20213;-72
2023/05/21 03:38:52;;;;;;;4.80;2.30;;;17.70;52.90;;;;;;5115115;28;20578;-73
2023/05/21 03:41:19;;;;;;;5.60;2.53;;;17.70;52.80;;;;;;5114689;28;20647;-71
2023/05/21 03:43:46;;;;;;;5.63;2.40;;;17.70;52.90;;;;;;5114946;28;20214;-72
2023/05/21 03:46:13;;;;;;;3.78;2.38;;;17.70;52.80;;;;;;5115063;28;20208;-73
2023/05/21 03:48:40;;;;;;;4.03;2.00;;;17.70;52.80;;;;;;5114886;28;20182;-71
2023/05/21 03:51:06;;;;;;;4.10;1.88;;;17.70;52.80;;;;;;5114810;28;20229;-72
2023/05/21 03:53:34;;;;;;;5.95;2.92;;;17.70;52.80;;;;;;5114713;28;20224;-71
2023/05/21 03:56:02;;;;;;;4.90;2.08;;;17.70;52.80;;;;;;5114624;28;20728;-71
2023/05/21 03:58:30;;;;;;;4.78;1.98;;;17.70;52.80;;;;;;5114751;28;20268;-72
2023/05/21 04:00:57;;;;;;;3.88;2.33;;;17.70;52.80;;;;;;5114399;28;20219;-73
2023/05/21 04:03:24;;;;;;;6.32;2.15;;;17.70;52.70;;;;;;5114508;28;20213;-72
2023/05/21 04:05:51;;;;;;;3.78;2.20;;;17.70;52.70;;;;;;5114652;28;20296;-71
2023/05/21 04:08:18;;;;;;;6.50;2.35;;;17.70;52.80;;;;;;5114229;28;20185;-71
2023/05/21 04:10:45;;;;;;;3.67;2.05;;;17.70;52.70;;;;;;5114515;28;20316;-72
2023/05/21 04:13:14;;;;;;;4.50;2.10;;;17.70;52.70;;;;;;5114599;28;20185;-70
2023/05/21 04:15:42;;;;;;;5.30;2.15;;;17.70;52.70;;;;;;5114488;28;20243;-71
2023/05/21 04:18:09;;;;;;;3.50;2.08;;;17.70;52.70;;;;;;5114269;28;20193;-71
2023/05/21 04:20:36;;;;;;;4.32;2.45;;;17.70;52.70;;;;;;5114375;28;20217;-71
2023/05/21 04:23:03;;;;;;;3.25;2.10;;;17.70;52.70;;;;;;5113792;28;20682;-72
2023/05/21 04:25:30;;;;;;;3.70;2.63;;;17.70;52.70;;;;;;5113975;28;20223;-72
2023/05/21 04:27:57;;;;;;;3.17;2.00;;;17.70;52.70;;;;;;5113572;28;20192;-70
2023/05/21 04:30:26;;;;;;;4.05;2.63;;;17.60;52.70;;;;;;5113733;28;20217;-71
2023/05/21 04:32:53;;;;;;;3.30;2.25;;;17.70;52.70;;;;;;5113725;28;20189;-71
2023/05/21 04:35:22;;;;;;;3.95;1.92;;;17.70;52.70;;;;;;5113710;28;20299;-71
2023/05/21 04:37:49;;;;;;;4.57;2.00;;;17.70;52.70;;;;;;5096119;28;20186;-71
2023/05/21 04:40:17;;;;;;;5.22;2.25;;;17.60;52.60;;;;;;5113818;28;20209;-71
2023/05/21 04:42:45;;;;;;;5.88;2.15;;;17.70;52.70;;;;;;5113955;28;20213;-71
2023/05/21 04:45:12;;;;;;;6.75;2.58;;;17.60;52.60;;;;;;5113791;28;20322;-71
2023/05/21 04:47:43;;;;;;;4.82;2.47;;;17.70;52.70;;;;;;5113731;28;20224;-70
2023/05/21 04:50:10;;;;;;;5.68;2.55;;;17.60;52.60;;;;;;5113600;28;20237;-70
2023/05/21 04:52:40;;;;;;;5.80;2.38;;;17.60;52.60;;;;;;5113444;28;20712;-70
2023/05/21 04:55:07;;;;;;;2.33;1.85;;;17.60;52.60;;;;;;5113601;28;20239;-70
2023/05/21 04:57:35;;;;;;;2.83;2.08;;;17.60;52.60;;;;;;5113247;28;20229;-71
2023/05/21 05:00:02;;;;;;;5.28;2.05;;;17.60;52.60;;;;;;5113579;28;20213;-71
2023/05/21 05:02:29;;;;;;;3.28;2.60;;;17.60;52.60;;;;;;5112983;28;20599;-72
2023/05/21 05:04:58;;;;;;;4.15;2.20;;;17.70;52.70;;;;;;5113053;28;20694;-71
2023/05/21 05:07:25;;;;;;;2.92;2.15;;;17.70;52.70;;;;;;5113493;28;20267;-71
2023/05/21 05:09:52;;;;;;;4.20;2.13;;;17.60;52.60;;;;;;5113298;28;20225;-71
2023/05/21 05:12:19;;;;;;;7.25;2.58;;;17.60;52.60;;;;;;5113410;28;20192;-71
2023/05/21 05:14:47;;;;;;;4.65;2.28;;;17.60;52.60;;;;;;5113224;28;20272;-71
2023/05/21 05:17:14;;;;;;;3.38;2.10;;;17.60;52.60;;;;;;5112920;28;20185;-71
2023/05/21 05:19:41;;;;;;;4.03;2.13;;;17.60;52.60;;;;;;5113116;28;20608;-72
2023/05/21 05:22:10;;;;;;;4.97;2.38;;;17.60;52.60;;;;;;5113056;28;20189;-71
2023/05/21 05:24:37;;;;;;;5.18;2.50;;;17.60;52.60;;;;;;5112719;28;20706;-70
2023/05/21 05:27:04;;;;;;;3.75;2.42;;;17.60;52.60;;;;;;5112716;28;20694;-71
2023/05/21 05:29:31;;;;;;;4.38;2.45;;;17.60;52.60;;;;;;5113101;28;20185;-71
2023/05/21 05:31:58;;;;;;;3.95;2.10;;;17.70;52.70;;;;;;5113198;28;20625;-72
2023/05/21 05:34:25;;;;;;;4.03;2.17;;;17.70;52.70;;;;;;5112913;28;20213;-71
2023/05/21 05:36:52;;;;;;;6.45;2.53;;;17.60;52.50;;;;;;5112809;28;20217;-72
2023/05/21 05:39:21;;;;;;;3.55;2.13;;;17.70;52.60;;;;;;5112443;28;20189;-71
2023/05/21 05:41:48;;;;;;;5.28;2.28;;;17.70;52.60;;;;;;5112726;28;20718;-71
2023/05/21 05:44:15;;;;;;;3.83;2.00;;;17.70;52.60;;;;;;5112754;28;20219;-71
2023/05/21 05:46:42;;;;;;;4.25;2.30;;;17.70;52.50;;;;;;5112670;28;20585;-70
2023/05/21 05:49:09;;;;;;;6.38;2.50;;;17.70;52.60;;;;;;5112336;28;20238;-70
2023/05/21 05:51:36;;;;;;;8.10;2.50;;;17.70;52.50;;;;;;5112743;28;20658;-70
2023/05/21 05:54:03;;;;;;;4.45;2.47;;;17.70;52.50;;;;;;5113047;28;20250;-71
2023/05/21 05:56:31;;;;;;;7.10;2.42;;;17.70;52.50;;;;;;5112957;28;20303;-70
2023/05/21 05:58:58;;;;;;;4.40;2.50;;;17.70;52.50;;;;;;5112668;28;20276;-71
2023/05/21 06:01:26;;;;;;;3.45;2.25;;;17.70;52.50;;;;;;5112734;28;20213;-70
2023/05/21 06:03:53;;;;;;;3.97;2.00;;;17.70;52.50;;;;;;5112350;28;20270;-70
2023/05/21 06:06:20;;;;;;;5.25;2.33;;;17.70;52.50;;;;;;5112803;28;20255;-71
2023/05/21 06:08:47;;;;;;;3.13;2.20;;;17.70;52.50;;;;;;5112937;28;20228;-71
2023/05/21 06:11:17;;;;;;;7.70;2.45;;;17.70;52.50;;;;;;5112362;28;20702;-72
2023/05/21 06:13:46;;;;;;;4.38;2.03;;;17.70;52.50;;;;;;5112541;28;20272;-73
2023/05/21 06:16:14;;;;;;;4.82;2.15;;;17.70;52.50;;;;;;5112349;28;20296;-71
2023/05/21 06:18:41;;;;;;;4.28;2.40;;;17.70;52.50;;;;;;5112559;28;20185;-71
2023/05/21 06:21:08;;;;;;;2.63;2.17;;;17.70;52.50;;;;;;5112269;28;20227;-71
2023/05/21 06:23:36;;;;;;;5.00;2.40;;;17.70;52.40;;;;;;5094477;28;20295;-70
2023/05/21 06:26:03;;;;;;;4.70;2.30;;;17.70;52.40;;;;;;5112524;28;20270;-71
2023/05/21 06:28:31;;;;;;;4.63;2.30;;;17.70;52.40;;;;;;5112415;28;20185;-72
2023/05/21 06:30:59;;;;;;;5.88;2.30;;;17.70;52.40;;;;;;5112410;28;20687;-73
2023/05/21 06:33:27;;;;;;;4.13;2.20;;;17.70;52.40;;;;;;5112072;28;20770;-71
2023/05/21 06:35:54;;;;;;;3.88;2.20;;;17.70;52.40;;;;;;5112174;28;20209;-73
2023/05/21 06:38:21;;;;;;;4.32;2.35;;;17.70;52.40;;;;;;5112271;28;20189;-72
2023/05/21 06:40:48;;;;;;;7.38;2.70;;;17.70;52.40;;;;;;5112000;28;20582;-71
2023/05/21 06:43:15;;;;;;;4.72;2.47;;;17.70;52.40;;;;;;5112217;28;20573;-72
2023/05/21 06:45:42;;;;;;;3.63;2.10;;;17.70;52.40;;;;;;5112315;28;20300;-71
2023/05/21 06:48:12;;;;;;;5.40;2.30;;;17.70;52.50;;;;;;5112289;28;20185;-71
2023/05/21 06:50:39;;;;;;;6.18;2.72;;;17.70;52.40;;;;;;5111864;28;20229;-71
2023/05/21 06:53:06;;;;;;;7.35;2.92;;;17.80;53.20;;;;;;5115144;28;20207;-71
2023/05/21 06:55:33;;;;;;;4.00;2.38;;;17.80;52.60;;;;;;5115933;28;20216;-71
2023/05/21 06:58:00;;;;;;;5.63;2.38;;;17.70;52.50;;;;;;5116028;28;20572;-71
2023/05/21 07:00:27;;;;;;;6.35;2.40;;;17.70;52.50;;;;;;5115849;28;20236;-71
2023/05/21 07:02:54;;;;;;;6.55;2.60;;;17.80;52.60;;;;;;5115668;28;20196;-72
2023/05/21 07:05:23;;;;;;;6.95;2.58;;;17.70;52.50;;;;;;5115497;28;20752;-71
2023/05/21 07:07:50;;;;;;;5.45;2.40;;;17.70;52.50;;;;;;5115778;28;20205;-71
2023/05/21 07:10:17;;;;;;;5.05;2.35;;;17.80;52.60;;;;;;5115328;28;20209;-71
2023/05/21 07:12:45;;;;;;;6.63;2.28;;;17.80;52.60;;;;;;5115542;28;20284;-72
2023/05/21 07:15:12;;;;;;;4.25;2.30;;;17.80;52.60;;;;;;5115503;28;20701;-72
2023/05/21 07:17:39;;;;;;;3.67;2.28;;;17.80;52.60;;;;;;5115621;28;20272;-73
2023/05/21 07:20:08;;;;;;;4.90;2.17;;;17.80;52.60;;;;;;5115104;28;20561;-73
2023/05/21 07:22:38;;;;;;;5.20;2.67;;;17.80;52.60;;;;;;5115071;28;20245;-71
2023/05/21 07:25:06;;;;;;;4.13;2.42;;;17.80;52.60;;;;;;5115294;28;20217;-71
2023/05/21 07:27:33;;;;;;;5.00;2.53;;;17.80;52.70;;;;;;5115326;28;20221;-70
2023/05/21 07:30:00;;;;;;;4.85;2.20;;;17.80;52.70;;;;;;5115154;28;20192;-73
2023/05/21 07:32:27;;;;;;;5.22;2.58;;;17.80;52.70;;;;;;5114789;28;20195;-73
2023/05/21 07:34:55;;;;;;;4.68;2.53;;;17.80;52.70;;;;;;5115173;28;20243;-72
2023/05/21 07:37:22;;;;;;;5.78;2.40;;;17.80;52.70;;;;;;5115091;28;20220;-71
2023/05/21 07:39:50;;;;;;;5.32;2.45;;;17.80;52.70;;;;;;5115219;28;20617;-71
2023/05/21 07:42:17;;;;;;;7.60;2.90;;;17.70;53.20;;;;;;5114944;28;20213;-72
2023/05/21 07:44:44;;;;;;;5.72;2.20;;;17.80;52.70;;;;;;5114550;28;20580;-71
2023/05/21 07:47:11;;;;;;;5.75;2.35;;;17.70;52.70;;;;;;5115224;28;20213;-71
2023/05/21 07:49:38;;;;;;;7.63;2.38;;;17.80;52.70;;;;;;5114492;28;20799;-73
2023/05/21 07:52:06;;;;;;;5.63;2.58;;;17.80;52.70;;;;;;5114887;28;20301;-73
2023/05/21 07:54:33;;;;;;;5.07;2.28;;;17.80;52.80;;;;;;5114829;28;20280;-71
2023/05/21 07:57:01;;;;;;;4.75;2.70;;;17.80;52.80;;;;;;5114968;28;20216;-73
2023/05/21 07:59:28;;;;;;;4.68;2.58;;;17.80;52.80;;;;;;5114465;28;20192;-72
2023/05/21 08:01:56;;;;;;;6.82;2.83;;;17.70;52.70;;;;;;5096045;28;20217;-70
2023/05/21 08:04:23;;;;;;;4.40;2.80;;;17.80;52.80;;;;;;5113060;28;20212;-72
2023/05/21 08:06:50;;;;;;;5.45;2.47;;;17.80;52.90;;;;;;5114379;28;20694;-71
2023/05/21 08:09:17;;;;;;;5.93;2.30;;;17.80;52.90;;;;;;5114290;28;20188;-73
2023/05/21 08:11:45;;;;;;;6.43;2.50;;;17.80;52.90;;;;;;5114640;28;20236;-72
2023/05/21 08:14:13;;;;;;;3.50;2.40;;;17.80;52.90;;;;;;5114356;28;20616;-71
2023/05/21 08:16:40;;;;;;;6.38;2.53;;;17.80;52.90;;;;;;5114164;28;20763;-71
2023/05/21 08:19:07;;;;;;;4.03;2.47;;;17.80;53.00;;;;;;5114355;28;20190;-72
2023/05/21 08:21:35;;;;;;;4.90;2.50;;;17.80;53.00;;;;;;5113971;28;20266;-70
2023/05/21 08:24:02;;;;;;;6.15;2.80;;;17.80;53.00;;;;;;5113905;28;20238;-71
2023/05/21 08:26:29;;;;;;;4.05;2.67;;;17.80;53.00;;;;;;5096151;28;20249;-71
2023/05/21 08:28:56;;;;;;;6.00;2.50;;;17.70;52.90;;;;;;5113854;28;20186;-71
2023/05/21 08:31:25;;;;;;;4.22;2.55;;;17.80;53.10;;;;;;5113784;28;20720;-71
2023/05/21 08:33:55;;;;;;;4.43;2.67;;;17.80;53.10;;;;;;5113945;28;20276;-71
2023/05/21 08:36:22;;;;;;;5.45;2.65;;;17.80;53.10;;;;;;5096435;28;20241;-71
2023/05/21 08:38:49;;;;;;;5.53;2.70;;;17.80;53.10;;;;;;5113904;28;20189;-72
2023/05/21 08:41:18;;;;;;;3.53;2.28;;;17.70;53.00;;;;;;5113683;28;20255;-71
2023/05/21 08:43:47;;;;;;;6.68;2.60;;;17.80;53.20;;;;;;5113710;28;20259;-70
2023/05/21 08:46:16;;;;;;;5.13;2.58;;;17.80;53.20;;;;;;5113862;28;20248;-71
2023/05/21 08:48:46;;;;;;;3.75;2.53;;;17.80;53.20;;;;;;5113836;28;20509;-71
2023/05/21 08:51:13;;;;;;;5.70;2.72;;;17.80;53.20;;;;;;5113269;28;20812;-71
2023/05/21 08:53:43;;;;;;;5.25;2.63;;;17.80;53.20;;;;;;5113889;28;20198;-71
2023/05/21 08:56:11;;;;;;;6.38;2.78;;;17.70;53.20;;;;;;5113971;28;20213;-71
2023/05/21 08:58:42;;;;;;;5.28;2.75;;;17.70;53.20;;;;;;5113540;28;20188;-72
2023/05/21 09:01:11;;;;;;;5.80;2.70;;;17.80;53.30;;;;;;5113413;28;20236;-71
2023/05/21 09:03:40;;;;;;;5.85;2.50;;;17.80;53.30;;;;;;5095544;28;20197;-71
2023/05/21 09:06:12;;;;;;;4.38;2.22;;;17.70;53.20;;;;;;5113298;28;20300;-71
2023/05/21 09:08:44;;;;;;;7.53;2.47;;;17.70;53.90;;;;;;5113523;28;20238;-71
2023/05/21 09:11:12;;;;;;;5.65;2.80;;;17.80;53.40;;;;;;5113334;28;20575;-70
2023/05/21 09:13:40;;;;;;;8.20;3.00;;;17.80;54.00;;;;;;5113300;28;20196;-70
2023/05/21 09:16:08;;;;;;;5.28;2.50;;;17.70;53.40;;;;;;5112610;28;20245;-71
2023/05/21 09:18:35;;;;;;;6.72;2.70;;;17.80;53.50;;;;;;5112991;28;20643;-71
2023/05/21 09:21:25;;;;;;;5.53;2.88;;;17.80;53.50;;;;;;5113207;28;20209;-72
2023/05/21 09:23:55;;;;;;;4.65;2.53;;;17.80;53.50;;;;;;5113385;28;20228;-71
2023/05/21 09:26:23;;;;;;;5.78;2.90;;;17.70;53.50;;;;;;5113067;28;20221;-71
2023/05/21 09:28:51;;;;;;;5.43;2.65;;;17.70;53.50;;;;;;5113103;28;20194;-71
2023/05/21 09:31:18;;;;;;;5.20;2.38;;;17.70;53.50;;;;;;5113043;28;20330;-73
2023/05/21 09:33:48;;;;;;;5.45;2.78;;;17.80;53.60;;;;;;5112682;28;20287;-71
2023/05/21 09:36:18;;;;;;;8.70;3.35;;;17.80;53.60;;;;;;5112787;28;20225;-71
2023/05/21 09:38:48;;;;;;;6.45;2.80;;;17.80;53.70;;;;;;5112780;28;20192;-73
2023/05/21 09:41:15;;;;;;;6.05;2.58;;;17.80;53.70;;;;;;5112967;28;20221;-71
2023/05/21 09:43:43;;;;;;;5.28;2.70;;;17.80;53.70;;;;;;5112726;28;20264;-70
2023/05/21 09:46:10;;;;;;;4.70;2.42;;;17.70;53.70;;;;;;5112917;28;20217;-71
2023/05/21 09:48:39;;;;;;;6.40;2.55;;;17.80;53.70;;;;;;5112805;28;20280;-70
2023/05/21 09:51:11;;;;;;;4.82;2.67;;;17.70;53.70;;;;;;5112866;28;20316;-72
2023/05/21 09:53:51;;;;;;;6.72;2.75;;;17.70;53.70;;;;;;5113060;28;20224;-72
2023/05/21 09:56:23;;;;;;;6.13;2.60;;;17.70;53.70;;;;;;5112854;28;20216;-71
2023/05/21 09:58:53;;;;;;;5.88;2.40;;;17.70;53.70;;;;;;5112712;28;20564;-73
2023/05/21 10:01:21;;;;;;;4.20;2.50;;;17.70;53.70;;;;;;5112207;28;20224;-71
2023/05/21 10:03:53;;;;;;;7.32;3.03;;;17.80;53.70;;;;;;5112304;28;20193;-72
2023/05/21 10:06:21;;;;;;;5.95;2.47;;;17.70;53.70;;;;;;5112623;28;20212;-71
2023/05/21 10:08:51;;;;;;;4.95;3.03;;;17.70;54.30;;;;;;5112708;28;20271;-72
2023/05/21 10:11:23;;;;;;;4.72;2.88;;;17.70;53.70;;;;;;5112149;28;20227;-71
2023/05/21 10:13:55;;;;;;;5.53;2.90;;;17.70;53.70;;;;;;5112374;28;20279;-71
2023/05/21 10:16:23;;;;;;;7.55;3.10;;;17.70;53.70;;;;;;5112203;28;20712;-72
2023/05/21 10:18:52;;;;;;;9.88;3.00;;;17.70;53.70;;;;;;5112259;28;20193;-72
2023/05/21 10:21:21;;;;;;;4.40;2.42;;;17.70;53.70;;;;;;5112414;28;20213;-73
2023/05/21 10:23:49;;;;;;;5.85;3.00;;;17.70;53.70;;;;;;5112444;28;20263;-72
2023/05/21 10:26:20;;;;;;;7.10;2.88;;;17.70;53.70;;;;;;5112620;28;20294;-71
2023/05/21 10:28:48;;;;;;;6.13;2.72;;;17.70;53.70;;;;;;5116372;28;20293;-73
2023/05/21 10:31:15;;;;;;;4.97;2.65;;;17.80;53.70;;;;;;5116170;28;20302;-71
2023/05/21 10:33:43;;;;;;;6.07;2.67;;;17.70;54.30;;;;;;5116378;28;20191;-73
2023/05/21 10:36:11;;;;;;;6.72;3.15;;;17.70;53.70;;;;;;5116455;28;20217;-71
2023/05/21 10:38:39;;;;;;;4.75;2.50;;;17.70;53.70;;;;;;5116232;28;20191;-72
2023/05/21 10:41:07;;;;;;;6.97;2.85;;;17.70;54.30;;;;;;5116120;28;20690;-71
2023/05/21 10:43:58;;;;;;;7.65;2.80;;;17.70;53.70;;;;;;5116163;28;20192;-71
2023/05/21 10:47:05;;;;;;;5.63;2.72;;;17.70;53.70;;;;;;5115979;28;20217;-73
2023/05/21 10:49:50;;;;;;;6.75;3.05;;;17.80;53.80;;;;;;5115898;28;20606;-72
2023/05/21 10:52:33;;;;;;;4.28;2.72;;;17.70;53.70;;;;;;5115642;28;20698;-72
2023/05/21 10:55:19;;;;;;;4.95;2.35;;;17.70;53.80;;;;;;5115960;28;20189;-72
2023/05/21 10:58:32;;;;;;;6.22;2.78;;;17.70;53.90;;;;;;5115965;28;20182;-72
2023/05/21 11:01:02;;;;;;;4.82;2.88;;;17.70;53.90;;;;;;5115703;28;20220;-71
2023/05/21 11:03:30;;;;;;;7.93;3.50;;;17.80;54.00;;;;;;5115889;28;20246;-72
2023/05/21 11:05:58;;;;;;;3.72;2.80;;;17.70;53.90;;;;;;5115383;28;20776;-71
2023/05/21 11:08:30;;;;;;;4.95;2.60;;;17.70;54.00;;;;;;5115735;28;20189;-71
2023/05/21 11:10:58;;;;;;;6.28;3.03;;;17.70;54.00;;;;;;5115597;28;20209;-71
2023/05/21 11:13:26;;;;;;;5.75;3.08;;;17.70;54.00;;;;;;5115656;28;20202;-72
2023/05/21 11:16:14;;;;;;;6.03;2.85;;;17.70;54.00;;;;;;5115483;28;20296;-73
2023/05/21 11:18:59;;;;;;;7.40;2.97;;;17.80;54.10;;;;;;5115449;28;20695;-73
2023/05/21 11:21:30;;;;;;;5.68;2.63;;;17.80;54.20;;;;;;5115235;28;20221;-71
2023/05/21 11:24:03;;;;;;;6.05;2.95;;;17.80;54.20;;;;;;5115158;28;20655;-73
2023/05/21 11:27:04;;;;;;;7.60;2.90;;;17.80;54.30;;;;;;5115639;28;20225;-70
2023/05/21 11:29:40;;;;;;;7.47;2.75;;;17.80;54.30;;;;;;5115110;28;20639;-73
2023/05/21 11:32:11;;;;;;;6.95;2.53;;;17.80;54.30;;;;;;5115343;28;20248;-71
2023/05/21 11:34:40;;;;;;;6.30;3.00;;;17.80;54.30;;;;;;5115214;28;20280;-73
2023/05/21 11:37:29;;;;;;;9.07;2.97;;;17.80;54.30;;;;;;5114951;28;20213;-71
2023/05/21 11:39:57;;;;;;;5.95;2.90;;;17.70;54.20;;;;;;5114797;28;20243;-71
2023/05/21 11:42:32;;;;;;;8.20;2.72;;;17.80;54.30;;;;;;5115243;28;20220;-72
2023/05/21 11:45:00;;;;;;;7.32;2.95;;;17.80;54.30;;;;;;5110820;28;20228;-73
2023/05/21 11:47:30;;;;;;;4.93;2.65;;;17.80;54.30;;;;;;5115256;28;20248;-71
2023/05/21 11:49:59;;;;;;;5.82;2.60;;;17.80;54.40;;;;;;5114417;28;20228;-71
2023/05/21 11:52:28;;;;;;;7.75;3.00;;;17.80;54.40;;;;;;5114901;28;20297;-71
2023/05/21 11:54:56;;;;;;;5.50;2.83;;;17.70;54.30;;;;;;5097025;28;20232;-70
2023/05/21 11:57:29;;;;;;;5.25;2.47;;;17.80;54.40;;;;;;5114977;28;20271;-71
2023/05/21 11:59:57;;;;;;;6.20;2.58;;;17.80;55.10;;;;;;5114484;28;20192;-71
2023/05/21 12:02:25;;;;;;;6.43;2.38;;;17.80;54.40;;;;;;5096455;28;20718;-72
2023/05/21 12:04:58;;;;;;;5.20;2.33;;;17.80;54.40;;;;;;5114665;28;20232;-71
2023/05/21 12:07:28;;;;;;;5.70;2.47;;;17.80;55.10;;;;;;5114746;28;20221;-72
2023/05/21 12:09:55;;;;;;;6.80;3.40;;;17.80;54.50;;;;;;5115044;28;20198;-72
2023/05/21 12:12:26;;;;;;;5.75;2.53;;;17.80;55.10;;;;;;5114195;28;20262;-71
2023/05/21 12:14:54;;;;;;;6.72;2.97;;;17.80;54.50;;;;;;5114399;28;20197;-71
2023/05/21 12:17:23;;;;;;;5.90;2.88;;;17.80;54.50;;;;;;5114340;28;20221;-72
2023/05/21 12:19:53;;;;;;;8.57;2.72;;;17.80;54.50;;;;;;5114396;28;20268;-72
2023/05/21 12:22:22;;;;;;;5.85;2.78;;;17.80;54.60;;;;;;5114160;28;20713;-72
2023/05/21 12:24:49;;;;;;;5.00;2.60;;;17.80;54.60;;;;;;5114145;28;20209;-71
2023/05/21 12:27:16;;;;;;;3.50;2.65;;;17.80;54.60;;;;;;5114452;28;20300;-71
2023/05/21 12:29:45;;;;;;;6.05;2.80;;;17.80;54.60;;;;;;5114084;28;20185;-71
2023/05/21 12:32:14;;;;;;;5.70;2.70;;;17.80;54.60;;;;;;5114277;28;20299;-72
2023/05/21 12:34:43;;;;;;;6.72;3.25;;;17.80;54.60;;;;;;5113729;28;20196;-71
2023/05/21 12:37:16;;;;;;;5.60;3.00;;;17.80;54.60;;;;;;5114064;28;20248;-70
2023/05/21 12:39:44;;;;;;;4.70;2.70;;;17.80;54.60;;;;;;5113895;28;20192;-71
2023/05/21 12:42:12;;;;;;;8.77;3.13;;;17.80;54.70;;;;;;5114232;28;20219;-72
2023/05/21 12:44:40;;;;;;;6.25;2.78;;;17.80;54.70;;;;;;5113817;28;20264;-71
2023/05/21 12:47:07;;;;;;;7.10;2.70;;;17.80;54.70;;;;;;5113855;28;20217;-70
2023/05/21 12:49:35;;;;;;;4.25;2.75;;;17.80;54.70;;;;;;5112674;28;20221;-71
2023/05/21 12:52:08;;;;;;;6.63;2.85;;;17.80;54.80;;;;;;5113767;28;20209;-71
2023/05/21 12:54:38;;;;;;;6.15;2.97;;;17.80;54.80;;;;;;5113706;28;20196;-70
2023/05/21 12:57:09;;;;;;;6.10;2.80;;;17.80;54.80;;;;;;5113829;28;20216;-71